Terminal Aerodrome Forecast
Issued by NWS

Home | Current Version | Previous Version | Text Only | Print | Product List | Glossary On
Versions: 1 2 3 4 5 6 7 8 9 10 11 12 13 14 15 16 17 18 19 20 21 22 23
000
FTAK31 PANC 012342
TAFAAQ
TAF
PAAQ 012342Z 0200/0224 20006KT P6SM SCT035
     FM020600 VRB03KT P6SM BKN035 OVC120
     FM022000 18006KT P6SM SCT050 BKN120 OVC180=

USA.gov is the U.S. government's official web portal to all federal, state and local government web resources and services.